Serra, Brazil
Current Conditions -  °F | °C
As of 10:00 PM on Saturday 20 Dec 2014 (Local Time) from SBVT Reporting Station
Broken Clouds Broken Clouds  
Wind Chill: 26°   Ceiling: 4900
Heat Index: 27°   Visibility: 6mi
Dew Point: 21°   Wind: 10mph
Humidity: 74%   Direction: 360°N
Pressure: 29.88"   Gusts: NA
Location:  20.13°S, 40.32°W
Report Text: SBVT 210000Z 36009KT 9999 FEW021 BKN049 26/21 Q1012
Loading
Personal Weather Stations






























Interactive Weather Map New forecast layout! Learn more

10-Day Weather Forecast

Advertisements
Track Severe Weather on mobile